Time;durP1;ratioP1;P1;durP2;ratioP2;P2;SDS_P1;SDS_P2;PMS_P1;PMS_P2;Temp;Humidity;BMP_temperature;BMP_pressure;BME280_temperature;BME280_humidity;BME280_pressure;Samples;Min_cycle;Max_cycle;Signal;HPM_P1;HPM_P2
2022/01/16 00:04:05;;;;;;;4.90;4.47;;;;;;;-1.85;83.49;92981.06;4937179;28;20579;-70
2022/01/16 00:04:56;;;;;;;3.60;3.50;;;;;;;-1.74;83.19;92986.94;4938036;28;20500;-70
2022/01/16 00:07:23;;;;;;;6.10;5.60;;;;;;;-1.97;84.12;92995.78;4937120;28;20601;-70
2022/01/16 00:09:50;;;;;;;6.10;3.27;;;;;;;-1.95;84.38;92996.66;4937588;28;20619;-70
2022/01/16 00:12:22;;;;;;;5.27;4.87;;;;;;;-2.16;85.63;92979.97;4937201;28;20586;-70
2022/01/16 00:14:49;;;;;;;5.43;5.03;;;;;;;-2.19;86.11;92986.50;4936992;28;20537;-70
2022/01/16 00:17:17;;;;;;;4.47;4.10;;;;;;;-2.19;86.56;92996.41;4937350;28;20585;-70
2022/01/16 00:19:44;;;;;;;6.53;5.93;;;;;;;-2.23;86.12;93029.34;4937703;28;20204;-70
2022/01/16 00:22:14;;;;;;;7.77;4.20;;;;;;;-2.28;87.57;93033.41;4937224;28;20581;-70
2022/01/16 00:24:42;;;;;;;5.77;5.23;;;;;;;-2.26;87.32;93072.22;4938025;28;20253;-70
2022/01/16 00:27:09;;;;;;;3.80;3.50;;;;;;;-2.11;85.78;93101.25;4937360;28;20558;-70
2022/01/16 00:29:37;;;;;;;14.43;4.47;;;;;;;-2.05;84.87;93128.56;4936936;28;20579;-70
2022/01/16 00:32:05;;;;;;;5.83;5.53;;;;;;;-2.05;85.16;93145.06;4938711;28;20633;-70
2022/01/16 00:34:32;;;;;;;4.43;4.17;;;;;;;-2.23;86.87;93076.38;4937510;28;20266;-70
2022/01/16 00:37:00;;;;;;;5.10;4.80;;;;;;;-2.47;87.21;93052.16;4937237;28;20193;-70
2022/01/16 00:39:27;;;;;;;3.47;3.27;;;;;;;-2.67;88.09;93023.88;4936808;28;20691;-70
2022/01/16 00:41:54;;;;;;;4.77;4.30;;;;;;;-2.53;87.11;92968.81;4936822;28;20561;-70
2022/01/16 00:44:22;;;;;;;6.17;5.60;;;;;;;-2.42;87.16;92926.09;4937763;28;20605;-70
2022/01/16 00:46:51;;;;;;;9.57;5.87;;;;;;;-2.61;86.93;92885.50;4936823;28;20596;-70
2022/01/16 00:49:18;;;;;;;6.10;4.70;;;;;;;-2.74;87.34;92893.56;4936614;28;20611;-70
2022/01/16 00:51:46;;;;;;;4.80;3.27;;;;;;;-2.69;86.56;92891.97;4937379;28;20543;-71
2022/01/16 00:54:14;;;;;;;3.57;3.37;;;;;;;-2.55;85.32;92927.59;4937004;28;20601;-70
2022/01/16 00:56:41;;;;;;;2.47;2.27;;;;;;;-2.81;85.34;92894.31;4939154;28;20645;-70
2022/01/16 00:59:09;;;;;;;2.33;2.33;;;;;;;-2.78;85.93;92946.28;4940621;28;20560;-71
2022/01/16 01:01:36;;;;;;;10.33;2.57;;;;;;;-2.70;85.09;92992.50;4940595;28;20275;-70
2022/01/16 01:04:05;;;;;;;1.77;1.77;;;;;;;-2.77;84.67;93003.16;4940308;28;20550;-70
2022/01/16 01:06:32;;;;;;;1.07;1.07;;;;;;;-3.05;84.66;93018.41;4920942;28;20232;-71
2022/01/16 01:08:59;;;;;;;3.53;1.93;;;;;;;-3.03;84.64;93004.44;4921426;28;20649;-70
2022/01/16 01:11:28;;;;;;;1.20;1.20;;;;;;;-3.01;84.25;93003.66;4933812;28;20563;-70
2022/01/16 01:14:13;;;;;;;1.07;1.07;;;;;;;-2.91;84.59;93004.59;4940967;28;20204;-71
2022/01/16 01:16:50;;;;;;;0.80;0.80;;;;;;;-3.11;84.70;93011.75;4943929;28;20612;-71
2022/01/16 01:19:20;;;;;;;5.70;1.70;;;;;;;-2.99;84.31;93007.00;4945829;28;20575;-71
2022/01/16 01:21:48;;;;;;;1.53;1.53;;;;;;;-2.94;84.06;93000.47;4940572;28;20570;-71
2022/01/16 01:24:15;;;;;;;2.00;1.53;;;;;;;-2.93;84.81;93004.56;4940522;28;20616;-71
2022/01/16 01:26:50;;;;;;;1.07;1.00;;;;;;;-3.07;84.51;93015.09;4945680;28;20556;-71
2022/01/16 01:29:20;;;;;;;1.63;1.63;;;;;;;-2.91;84.21;93019.44;4939855;28;20612;-71
2022/01/16 01:31:48;;;;;;;0.87;0.87;;;;;;;-3.06;84.21;93034.88;4940768;28;20550;-71
2022/01/16 01:34:15;;;;;;;1.43;1.43;;;;;;;-3.10;84.19;93037.28;4940907;28;20561;-71
2022/01/16 01:36:48;;;;;;;1.43;1.33;;;;;;;-3.10;84.49;93040.56;4939799;28;20592;-71
2022/01/16 01:39:15;;;;;;;1.40;1.30;;;;;;;-3.17;84.87;93030.59;4940187;28;20544;-71
2022/01/16 01:41:43;;;;;;;1.90;1.70;;;;;;;-3.18;84.57;93037.16;4941180;28;20575;-71
2022/01/16 01:52:25;;;;;;;1.87;1.77;;;;;;;-3.25;85.26;93037.88;4939700;28;20218;-71
2022/01/16 01:54:53;;;;;;;1.10;1.10;;;;;;;-3.13;84.52;93049.59;4940234;28;20555;-71
2022/01/16 01:57:20;;;;;;;2.03;1.93;;;;;;;-3.06;84.56;93059.59;4939981;28;20520;-71
2022/01/16 01:59:47;;;;;;;2.57;1.80;;;;;;;-3.11;85.50;93041.41;4938812;28;20196;-71
2022/01/16 02:02:15;;;;;;;2.40;2.17;;;;;;;-3.00;83.98;93062.16;4939560;28;20712;-71
2022/01/16 02:04:42;;;;;;;1.43;1.43;;;;;;;-3.11;84.56;93047.97;4938865;28;20500;-71
2022/01/16 02:07:09;;;;;;;6.40;2.37;;;;;;;-3.19;85.41;93071.72;4936529;28;20597;-70
2022/01/16 02:09:38;;;;;;;1.57;1.57;;;;;;;-3.27;86.00;93066.69;4936098;28;20196;-71
2022/01/16 02:12:07;;;;;;;1.27;1.27;;;;;;;-3.15;84.86;93063.53;4938544;28;20719;-71
2022/01/16 02:14:49;;;;;;;1.07;1.07;;;;;;;-3.26;84.30;93045.25;4939961;28;20607;-71
2022/01/16 02:28:23;;;;;;;1.90;1.80;;;;;;;-3.25;84.61;93060.13;4938778;28;20635;-71
2022/01/16 02:31:13;;;;;;;1.50;1.50;;;;;;;-3.18;83.83;93061.03;4919729;28;20204;-71
2022/01/16 02:36:33;;;;;;;1.53;1.53;;;;;;;-3.28;86.12;93022.19;4934524;28;20503;-71
2022/01/16 02:39:06;;;;;;;2.17;2.07;;;;;;;-3.20;84.46;93031.38;4938861;28;20534;-71
2022/01/16 02:41:33;;;;;;;3.37;3.13;;;;;;;-3.24;84.78;93042.03;4939018;28;20466;-71
2022/01/16 02:44:02;;;;;;;2.07;1.97;;;;;;;-3.24;84.14;93037.06;4938202;28;20482;-71
2022/01/16 02:46:39;;;;;;;3.10;2.67;;;;;;;-3.23;84.30;93030.50;4958025;28;20501;-71
2022/01/16 02:49:18;;;;;;;1.90;1.80;;;;;;;-3.33;83.86;93041.06;4958391;28;20482;-71
2022/01/16 02:51:46;;;;;;;1.67;1.67;;;;;;;-3.41;85.31;93036.00;4957826;28;20774;-71
2022/01/16 02:54:14;;;;;;;1.80;1.70;;;;;;;-3.40;85.22;93022.84;4958518;28;20587;-71
2022/01/16 02:56:43;;;;;;;1.77;1.77;;;;;;;-3.55;85.63;93012.72;4957611;28;20573;-71
2022/01/16 02:59:11;;;;;;;2.57;1.73;;;;;;;-3.53;85.78;93025.91;4958052;28;20467;-71
2022/01/16 03:01:39;;;;;;;1.17;1.17;;;;;;;-3.63;86.76;93029.88;4958936;28;20207;-71
2022/01/16 03:04:07;;;;;;;1.80;1.80;;;;;;;-3.84;87.17;93019.66;4957211;28;20293;-71
2022/01/16 03:06:34;;;;;;;0.90;0.90;;;;;;;-3.72;86.40;93032.22;4957597;28;20289;-71
2022/01/16 03:09:06;;;;;;;1.47;1.47;;;;;;;-3.68;86.26;93020.72;4957665;28;20280;-71
2022/01/16 03:11:36;;;;;;;2.30;2.10;;;;;;;-3.68;85.37;93031.44;4957052;28;20191;-71
2022/01/16 03:14:05;;;;;;;2.00;2.00;;;;;;;-3.83;86.64;93032.00;4947975;28;20595;-71
2022/01/16 03:16:32;;;;;;;1.67;1.67;;;;;;;-3.95;87.36;93019.47;4957314;28;20459;-71
2022/01/16 03:21:57;;;;;;;0.83;0.83;;;;;;;-3.85;86.90;93027.84;4957795;28;20625;-71
2022/01/16 03:24:26;;;;;;;2.00;2.00;;;;;;;-3.87;86.60;93017.94;4957910;28;20549;-71
2022/01/16 03:26:57;;;;;;;1.97;1.63;;;;;;;-4.00;86.93;93017.72;4957203;28;20218;-71
2022/01/16 03:29:25;;;;;;;2.27;2.27;;;;;;;-4.23;87.73;93018.16;4956830;28;20613;-71
2022/01/16 03:31:52;;;;;;;2.00;2.00;;;;;;;-4.09;87.17;93023.31;4957216;28;20473;-71
2022/01/16 03:34:19;;;;;;;2.00;1.90;;;;;;;-3.98;86.41;93043.25;4959108;28;20704;-71
2022/01/16 03:36:47;;;;;;;3.53;2.33;;;;;;;-4.09;85.78;93032.34;4957164;28;20455;-71
2022/01/16 03:39:14;;;;;;;4.17;4.03;;;;;;;-3.98;86.25;93041.59;4957130;28;20603;-71
2022/01/16 03:41:41;;;;;;;2.07;2.07;;;;;;;-4.09;87.95;93042.22;4958321;28;20572;-71
2022/01/16 03:44:10;;;;;;;1.73;1.73;;;;;;;-3.96;87.02;93049.03;4958158;28;20217;-71
2022/01/16 03:46:38;;;;;;;1.47;1.47;;;;;;;-3.96;86.69;93046.56;4956681;28;20496;-71
2022/01/16 03:49:09;;;;;;;1.63;1.63;;;;;;;-3.88;86.02;93062.34;4956977;28;20565;-71
2022/01/16 03:51:38;;;;;;;1.47;1.47;;;;;;;-4.04;87.89;93057.94;4956836;28;20555;-71
2022/01/16 03:54:07;;;;;;;1.70;1.70;;;;;;;-4.06;87.34;93067.78;4956620;28;20651;-71
2022/01/16 03:56:35;;;;;;;2.50;2.40;;;;;;;-4.01;86.52;93078.56;4957404;28;20591;-71
2022/01/16 03:59:02;;;;;;;2.57;2.47;;;;;;;-3.95;87.02;93070.47;4957200;28;20203;-71
2022/01/16 04:01:31;;;;;;;4.13;3.80;;;;;;;-4.08;87.23;93069.38;4957363;28;20218;-71
2022/01/16 04:03:58;;;;;;;2.93;2.83;;;;;;;-4.30;88.30;93068.16;4957417;28;20529;-71
2022/01/16 04:06:26;;;;;;;3.47;1.77;;;;;;;-4.44;88.46;93079.38;4956439;28;20629;-71
2022/01/16 04:08:55;;;;;;;2.87;2.77;;;;;;;-4.56;89.21;93079.09;4956157;28;20408;-71
2022/01/16 04:11:23;;;;;;;0.90;0.90;;;;;;;-4.62;89.30;93082.28;4956566;28;20596;-71
2022/01/16 04:13:53;;;;;;;1.10;1.10;;;;;;;-4.71;90.13;93077.16;4956841;28;20240;-71
2022/01/16 04:16:22;;;;;;;2.77;2.57;;;;;;;-4.55;88.93;93084.88;4956892;28;20490;-71
2022/01/16 04:18:51;;;;;;;1.63;1.63;;;;;;;-4.63;89.03;93079.81;4957071;28;20643;-71
2022/01/16 04:21:19;;;;;;;0.90;0.90;;;;;;;-4.50;88.18;93090.72;4956741;28;20204;-71
2022/01/16 04:23:46;;;;;;;1.23;1.23;;;;;;;-4.54;88.79;93084.91;4956366;28;20289;-71
2022/01/16 04:26:14;;;;;;;1.30;1.30;;;;;;;-4.48;87.44;93089.13;4955844;28;20245;-71
2022/01/16 04:28:41;;;;;;;0.80;0.80;;;;;;;-4.42;87.13;93091.72;4917080;28;20651;-71
2022/01/16 04:31:08;;;;;;;2.53;1.13;;;;;;;-4.44;87.69;93093.31;4927141;28;20205;-71
2022/01/16 04:33:36;;;;;;;1.27;1.27;;;;;;;-4.30;86.46;93091.97;4941702;28;20536;-71
2022/01/16 04:36:05;;;;;;;1.23;1.23;;;;;;;-4.49;87.64;93090.75;4941302;28;20529;-71
2022/01/16 04:38:34;;;;;;;2.47;2.47;;;;;;;-4.59;88.35;93088.91;4952107;28;20593;-71
2022/01/16 04:43:50;;;;;;;1.67;1.47;;;;;;;-4.55;88.01;93082.41;4941117;28;20493;-71
2022/01/16 04:46:18;;;;;;;1.53;1.53;;;;;;;-4.49;87.37;93085.00;4941099;28;20230;-71
2022/01/16 04:48:46;;;;;;;1.80;1.80;;;;;;;-4.55;88.16;93083.25;4940303;28;20629;-71
2022/01/16 04:51:14;;;;;;;1.27;1.27;;;;;;;-4.44;87.06;93096.63;4941311;28;20566;-71
2022/01/16 04:53:42;;;;;;;1.63;1.53;;;;;;;-4.47;87.56;93084.25;4940761;28;20241;-71
2022/01/16 04:56:10;;;;;;;2.57;2.47;;;;;;;-4.49;87.54;93075.97;4940633;28;20657;-71
2022/01/16 04:58:38;;;;;;;1.47;1.47;;;;;;;-4.48;87.72;93094.91;4940934;28;20571;-71
2022/01/16 05:01:06;;;;;;;1.60;1.60;;;;;;;-4.46;87.46;93093.31;4943266;28;20616;-71
2022/01/16 05:03:35;;;;;;;2.00;2.00;;;;;;;-4.56;88.38;93091.44;4947361;28;20560;-71
2022/01/16 05:06:04;;;;;;;5.90;2.80;;;;;;;-4.76;88.91;93095.13;4940734;28;20243;-71
2022/01/16 05:08:33;;;;;;;2.40;2.30;;;;;;;-4.72;88.04;93099.31;4941365;28;20521;-71
2022/01/16 05:11:01;;;;;;;4.10;4.00;;;;;;;-4.89;89.55;93096.47;4940538;28;20218;-71
2022/01/16 05:16:34;;;;;;;3.13;3.03;;;;;;;-4.92;89.08;93096.44;4920957;28;20200;-71
2022/01/16 05:16:35;;;;;;;1.70;1.60;;;;;;;-5.08;90.13;93097.72;4921228;28;20486;-71
2022/01/16 05:19:05;;;;;;;1.03;1.03;;;;;;;-4.95;88.80;93096.34;4936379;28;20592;-71
2022/01/16 05:21:33;;;;;;;1.67;1.67;;;;;;;-4.83;88.42;93091.69;4941049;28;20614;-71
2022/01/16 05:24:04;;;;;;;1.63;1.53;;;;;;;-4.75;88.00;93104.19;4939935;28;20586;-71
2022/01/16 05:26:31;;;;;;;1.70;1.70;;;;;;;-4.81;88.34;93092.56;4940243;28;20617;-71
2022/01/16 05:28:58;;;;;;;2.73;2.63;;;;;;;-4.78;87.99;93100.00;4939692;28;20625;-71
2022/01/16 05:31:25;;;;;;;1.20;1.20;;;;;;;-4.75;88.26;93097.63;4941009;28;20564;-71
2022/01/16 05:33:53;;;;;;;1.47;1.47;;;;;;;-4.81;88.04;93102.41;4940604;28;20569;-71
2022/01/16 05:36:21;;;;;;;4.40;2.70;;;;;;;-4.76;87.34;93100.88;4936965;28;20586;-71
2022/01/16 05:38:48;;;;;;;0.57;0.57;;;;;;;-4.86;87.10;93091.63;4939406;28;20481;-71
2022/01/16 05:41:18;;;;;;;6.10;1.43;;;;;;;-4.93;87.68;93101.31;4936271;28;20289;-72
2022/01/16 05:43:45;;;;;;;1.00;1.00;;;;;;;-4.92;87.22;93105.44;4931968;28;20693;-72
2022/01/16 05:46:13;;;;;;;1.73;1.73;;;;;;;-5.04;87.85;93086.28;4937611;28;20605;-71
2022/01/16 05:48:41;;;;;;;2.73;2.63;;;;;;;-5.14;88.94;93089.34;4929953;28;20199;-71
2022/01/16 05:51:08;;;;;;;1.37;1.37;;;;;;;-5.06;88.08;93097.72;4932425;28;20581;-70
2022/01/16 05:53:35;;;;;;;2.87;2.77;;;;;;;-4.93;88.34;93111.16;4930717;28;20205;-70
2022/01/16 05:56:03;;;;;;;1.40;1.40;;;;;;;-4.82;88.75;93119.63;4924664;28;20202;-70
2022/01/16 05:58:31;;;;;;;2.87;2.77;;;;;;;-4.90;88.82;93123.56;4931905;28;20554;-70
2022/01/16 06:00:58;;;;;;;3.70;1.97;;;;;;;-4.89;88.69;93122.75;4930540;28;20536;-71
2022/01/16 06:03:26;;;;;;;1.67;1.67;;;;;;;-4.84;88.61;93118.75;4930425;28;20593;-71
2022/01/16 06:05:53;;;;;;;5.77;2.80;;;;;;;-4.80;87.12;93133.66;4931291;28;20597;-71
2022/01/16 06:08:20;;;;;;;2.87;2.00;;;;;;;-4.96;87.64;93124.25;4930312;28;20661;-71
2022/01/16 06:10:47;;;;;;;2.13;1.93;;;;;;;-5.02;88.85;93126.59;4935841;28;20575;-72
2022/01/16 06:13:14;;;;;;;1.97;1.97;;;;;;;-5.22;89.20;93131.03;4937026;28;20552;-72
2022/01/16 06:15:46;;;;;;;1.40;1.40;;;;;;;-5.33;90.13;93127.47;4933432;28;20225;-72
2022/01/16 06:18:14;;;;;;;2.63;2.53;;;;;;;-5.31;90.32;93149.69;4935604;28;20490;-72
2022/01/16 06:20:41;;;;;;;3.47;3.37;;;;;;;-5.41;90.79;93135.50;4936794;28;20471;-73
2022/01/16 06:23:09;;;;;;;4.83;4.47;;;;;;;-5.36;91.76;93149.56;4936830;28;20312;-72
2022/01/16 06:25:36;;;;;;;3.03;2.83;;;;;;;-5.38;91.12;93145.41;4937141;28;20216;-72
2022/01/16 06:28:03;;;;;;;4.10;3.67;;;;;;;-5.38;90.45;93145.41;4941699;28;20525;-72
2022/01/16 06:30:30;;;;;;;1.20;1.20;;;;;;;-5.36;90.54;93154.50;4935030;28;20602;-72
2022/01/16 06:32:59;;;;;;;2.20;2.17;;;;;;;-5.17;90.26;93161.50;4935739;28;20653;-71
2022/01/16 06:35:26;;;;;;;2.23;2.17;;;;;;;-5.18;90.10;93159.84;4933524;28;20498;-72
2022/01/16 06:37:53;;;;;;;3.73;3.53;;;;;;;-5.11;90.30;93161.66;4935077;28;20585;-72
2022/01/16 06:40:21;;;;;;;4.43;4.20;;;;;;;-5.04;90.60;93168.41;4936182;28;20598;-72
2022/01/16 06:42:48;;;;;;;3.83;3.53;;;;;;;-5.00;91.00;93166.84;4937307;28;20242;-72
2022/01/16 06:45:15;;;;;;;3.93;3.63;;;;;;;-4.82;90.95;93166.44;4935950;28;20570;-73
2022/01/16 06:47:42;;;;;;;5.13;3.80;;;;;;;-4.76;91.43;93161.66;4936314;28;20518;-72
2022/01/16 06:50:12;;;;;;;3.03;3.00;;;;;;;-4.77;90.64;93160.81;4935421;28;20604;-72
2022/01/16 06:52:39;;;;;;;5.30;5.03;;;;;;;-4.78;91.13;93155.84;4934885;28;20215;-72
2022/01/16 06:55:07;;;;;;;3.90;3.77;;;;;;;-4.72;91.63;93153.53;4940848;28;20485;-73
2022/01/16 06:57:34;;;;;;;7.23;3.47;;;;;;;-4.66;90.60;93163.50;4935463;28;20271;-72
2022/01/16 07:00:02;;;;;;;2.70;2.60;;;;;;;-4.74;89.75;93158.44;4933783;28;20625;-72
2022/01/16 07:02:29;;;;;;;1.57;1.57;;;;;;;-4.60;90.41;93173.50;4932969;28;20538;-70
2022/01/16 07:04:56;;;;;;;1.30;1.30;;;;;;;-4.51;91.30;93177.84;4934609;28;20645;-71
2022/01/16 07:07:24;;;;;;;2.60;1.53;;;;;;;-4.26;90.65;93180.00;4935880;28;20601;-72
2022/01/16 07:09:52;;;;;;;2.90;2.80;;;;;;;-4.03;89.66;93190.34;4934871;28;20576;-71
2022/01/16 07:12:19;;;;;;;2.40;2.40;;;;;;;-3.83;88.89;93196.53;4933569;28;20561;-73
2022/01/16 07:14:47;;;;;;;3.20;3.00;;;;;;;-3.71;89.33;93191.81;4934395;28;20248;-73
2022/01/16 07:17:14;;;;;;;3.73;2.83;;;;;;;-3.54;89.08;93197.06;4937474;28;20550;-74
2022/01/16 07:19:41;;;;;;;5.30;4.43;;;;;;;-3.39;87.48;93208.09;4936002;28;20809;-72
2022/01/16 07:22:09;;;;;;;2.77;2.67;;;;;;;-3.27;86.23;93206.66;4931087;28;20222;-72
2022/01/16 07:24:37;;;;;;;4.90;4.60;;;;;;;-3.28;87.48;93193.47;4934382;28;20491;-71
2022/01/16 07:27:05;;;;;;;4.03;3.93;;;;;;;-3.35;86.86;93194.16;4935842;28;20532;-71
2022/01/16 07:29:32;;;;;;;5.07;4.60;;;;;;;-3.30;86.80;93199.16;4934444;28;20301;-71
2022/01/16 07:31:59;;;;;;;4.83;4.73;;;;;;;-3.13;86.11;93205.25;4932890;28;20244;-70
2022/01/16 07:34:26;;;;;;;5.97;5.43;;;;;;;-2.98;86.16;93205.50;4935726;28;20577;-70
2022/01/16 07:36:54;;;;;;;6.00;5.70;;;;;;;-2.84;86.13;93201.63;4933206;28;20446;-71
2022/01/16 07:39:21;;;;;;;6.90;6.53;;;;;;;-2.79;84.23;93200.06;4933734;28;20564;-72
2022/01/16 07:41:49;;;;;;;7.53;6.77;;;;;;;-2.65;84.08;93206.03;4934484;28;20212;-71
2022/01/16 07:44:16;;;;;;;9.97;6.20;;;;;;;-2.63;85.27;93206.91;4933527;28;20590;-71
2022/01/16 07:46:44;;;;;;;4.77;4.47;;;;;;;-2.70;85.77;93200.19;4939389;28;20608;-71
2022/01/16 07:49:11;;;;;;;5.43;5.07;;;;;;;-2.71;85.60;93195.25;4934464;28;20608;-73
2022/01/16 07:51:38;;;;;;;4.33;3.93;;;;;;;-2.70;84.91;93202.66;4934482;28;20584;-72
2022/01/16 07:54:05;;;;;;;6.30;5.03;;;;;;;-2.69;85.25;93201.84;4934635;28;20539;-72
2022/01/16 07:56:32;;;;;;;2.83;2.73;;;;;;;-2.73;85.55;93202.63;4932567;28;20539;-71
2022/01/16 07:59:01;;;;;;;1.33;1.33;;;;;;;-2.65;85.92;93206.03;4934400;28;20592;-71
2022/01/16 08:01:28;;;;;;;2.23;1.73;;;;;;;-2.58;84.93;93209.44;4935162;28;20559;-71
2022/01/16 08:03:55;;;;;;;2.63;2.53;;;;;;;-2.58;85.53;93197.91;4934838;28;20528;-72
2022/01/16 08:06:22;;;;;;;3.37;3.07;;;;;;;-2.43;86.14;93198.97;4939716;28;20581;-72
2022/01/16 08:08:49;;;;;;;2.10;2.03;;;;;;;-2.32;82.23;93205.75;4934709;28;20592;-73
2022/01/16 08:11:17;;;;;;;2.33;2.27;;;;;;;-2.24;82.81;93196.75;4933904;28;20667;-72
2022/01/16 08:13:44;;;;;;;2.87;2.77;;;;;;;-2.19;83.36;93184.44;4933047;28;20527;-72
2022/01/16 08:16:14;;;;;;;2.87;2.77;;;;;;;-2.12;82.91;93188.69;4930670;28;20232;-72
2022/01/16 08:18:41;;;;;;;3.40;3.10;;;;;;;-2.09;82.73;93183.78;4925041;28;20643;-72
2022/01/16 08:21:08;;;;;;;4.33;3.97;;;;;;;-1.99;81.19;93199.59;4922099;28;20604;-73
2022/01/16 08:23:35;;;;;;;2.67;2.57;;;;;;;-1.90;82.17;93204.66;4925698;28;20201;-73
2022/01/16 08:26:04;;;;;;;3.50;3.20;;;;;;;-1.82;81.62;93205.59;4923717;28;20567;-73
2022/01/16 08:28:31;;;;;;;8.43;6.63;;;;;;;-1.74;83.37;93184.22;4923879;28;20562;-74
2022/01/16 08:30:58;;;;;;;6.13;5.70;;;;;;;-1.64;81.47;93182.69;4926429;28;20668;-73
2022/01/16 08:33:27;;;;;;;7.93;4.70;;;;;;;-1.67;80.35;93183.47;4930597;28;20491;-73
2022/01/16 08:35:54;;;;;;;8.63;7.80;;;;;;;-1.55;81.46;93187.75;4926850;28;20555;-73
2022/01/16 08:38:22;;;;;;;7.80;6.93;;;;;;;-1.46;79.64;93196.09;4925221;28;20474;-73
2022/01/16 08:40:49;;;;;;;9.80;9.10;;;;;;;-1.42;79.96;93187.91;4928051;28;20649;-73
2022/01/16 08:43:17;;;;;;;9.23;6.83;;;;;;;-1.36;78.95;93185.50;4942499;28;20292;-72
2022/01/16 08:45:44;;;;;;;2.97;2.93;;;;;;;-1.27;78.80;93180.63;4929844;28;20614;-73
2022/01/16 08:48:11;;;;;;;7.20;5.30;;;;;;;-1.22;78.46;93168.28;4931286;28;20625;-73
2022/01/16 08:50:40;;;;;;;7.50;6.97;;;;;;;-1.08;76.34;93189.09;4929858;28;20597;-73
2022/01/16 08:53:08;;;;;;;5.87;5.07;;;;;;;-0.93;76.31;93184.25;4928647;28;20204;-73
2022/01/16 08:55:37;;;;;;;4.27;4.07;;;;;;;-0.96;73.97;93158.63;4925076;28;20201;-72
2022/01/16 08:58:05;;;;;;;7.47;5.13;;;;;;;-0.65;74.51;93182.84;4937026;28;20580;-73
2022/01/16 09:00:32;;;;;;;5.37;5.07;;;;;;;-0.56;75.13;93170.50;4933669;28;20236;-72
2022/01/16 09:03:00;;;;;;;6.53;5.97;;;;;;;-0.45;73.94;93183.81;4927951;28;20647;-73
2022/01/16 09:05:27;;;;;;;4.77;4.47;;;;;;;-0.37;73.06;93190.50;4931974;28;20616;-72
2022/01/16 09:07:56;;;;;;;7.20;4.63;;;;;;;-0.25;72.10;93183.97;4934901;28;20283;-73
2022/01/16 09:10:25;;;;;;;7.40;6.90;;;;;;;-0.16;71.98;93184.03;4933773;28;20553;-72
2022/01/16 09:12:53;;;;;;;4.67;4.40;;;;;;;-0.08;71.57;93189.88;4933669;28;20509;-73
2022/01/16 09:15:21;;;;;;;6.47;2.73;;;;;;;0.01;72.02;93166.75;4933242;28;20492;-72
2022/01/16 09:17:48;;;;;;;8.00;3.87;;;;;;;0.12;71.56;93165.13;4918631;28;20475;-71
2022/01/16 09:20:16;;;;;;;4.17;4.07;;;;;;;0.20;72.01;93162.69;4937131;28;20557;-71
2022/01/16 09:22:44;;;;;;;5.23;4.83;;;;;;;0.36;67.40;93199.22;4935985;28;20224;-71
2022/01/16 09:25:14;;;;;;;4.10;3.90;;;;;;;0.40;66.99;93181.00;4935775;28;20206;-72
2022/01/16 09:27:42;;;;;;;4.43;4.03;;;;;;;0.50;67.14;93172.78;4937105;28;20613;-72
2022/01/16 09:30:11;;;;;;;6.33;5.83;;;;;;;0.56;67.10;93162.88;4934486;28;20312;-72
2022/01/16 09:32:39;;;;;;;4.57;4.27;;;;;;;0.61;65.50;93183.59;4932243;28;20627;-72
2022/01/16 09:35:08;;;;;;;5.00;4.63;;;;;;;0.70;66.25;93171.19;4933011;28;20586;-72
2022/01/16 09:37:36;;;;;;;2.73;2.63;;;;;;;0.84;66.76;93164.56;4949473;28;20274;-73
2022/01/16 09:40:04;;;;;;;4.10;3.80;;;;;;;0.88;64.72;93184.50;4950080;28;20667;-72
2022/01/16 09:42:34;;;;;;;4.20;3.80;;;;;;;1.04;62.28;93201.09;4938988;28;20635;-72
2022/01/16 09:45:01;;;;;;;4.43;4.10;;;;;;;1.10;62.10;93176.25;4938220;28;20619;-72
2022/01/16 09:47:28;;;;;;;4.37;3.87;;;;;;;1.29;62.69;93167.97;4939545;28;20230;-72
2022/01/16 09:49:56;;;;;;;3.60;3.47;;;;;;;1.46;61.39;93176.28;4938814;28;20279;-73
2022/01/16 09:52:23;;;;;;;2.90;2.80;;;;;;;1.62;61.52;93162.16;4937079;28;20577;-72
2022/01/16 09:54:50;;;;;;;5.10;4.27;;;;;;;1.79;60.88;93169.63;4934819;28;20307;-72
2022/01/16 09:57:18;;;;;;;3.93;3.73;;;;;;;1.95;58.27;93188.69;4938970;28;20570;-72
2022/01/16 09:59:47;;;;;;;5.87;4.50;;;;;;;2.13;57.38;93187.84;4936567;28;20558;-71
2022/01/16 10:02:14;;;;;;;5.40;4.40;;;;;;;2.29;57.42;93179.50;4937491;28;20562;-72
2022/01/16 10:04:43;;;;;;;19.83;8.83;;;;;;;2.40;55.58;93187.78;4937500;28;20217;-72
2022/01/16 10:07:12;;;;;;;4.27;3.93;;;;;;;2.54;58.03;93152.78;4937319;28;20626;-72
2022/01/16 10:09:41;;;;;;;9.67;3.80;;;;;;;2.66;56.87;93150.25;4938025;28;20648;-72
2022/01/16 10:12:16;;;;;;;4.07;3.80;;;;;;;2.79;54.80;93170.16;4936866;28;20204;-72
2022/01/16 10:14:56;;;;;;;8.33;3.53;;;;;;;3.14;53.11;93181.63;4936869;28;20476;-73
2022/01/16 10:17:26;;;;;;;4.53;2.87;;;;;;;4.48;51.60;93184.66;4927931;28;20668;-73
2022/01/16 10:19:59;;;;;;;2.97;2.87;;;;;;;5.92;46.13;93213.66;4939018;28;20601;-73
2022/01/16 10:22:37;;;;;;;1.97;1.87;;;;;;;7.36;41.38;93236.13;4948398;28;20503;-73
2022/01/16 10:25:06;;;;;;;2.43;2.23;;;;;;;8.60;38.58;93237.47;4955814;28;20208;-72
2022/01/16 10:27:36;;;;;;;15.47;4.10;;;;;;;9.67;36.54;93240.41;4932443;28;20588;-73
2022/01/16 10:30:07;;;;;;;3.30;3.10;;;;;;;10.34;34.88;93241.75;4922590;28;20251;-73
2022/01/16 10:32:37;;;;;;;7.33;5.27;;;;;;;10.95;33.92;93243.06;4922517;28;20194;-73
2022/01/16 10:35:17;;;;;;;5.07;4.67;;;;;;;11.29;33.32;93242.72;4934346;28;20604;-72
2022/01/16 10:37:45;;;;;;;14.07;5.33;;;;;;;11.39;32.23;93236.44;4938122;28;20215;-72
2022/01/16 10:40:16;;;;;;;13.87;5.97;;;;;;;12.03;31.78;93234.94;4935763;28;20613;-73
2022/01/16 10:42:49;;;;;;;6.78;5.82;;;;;;;12.50;31.60;93227.19;4937433;28;20581;-73
2022/01/16 10:45:26;;;;;;;10.00;5.22;;;;;;;13.02;30.01;93236.00;4940457;28;20608;-73
2022/01/16 10:47:55;;;;;;;5.30;4.90;;;;;;;13.20;31.70;93203.97;4937530;28;20224;-73
2022/01/16 10:50:23;;;;;;;48.15;18.15;;;;;;;13.68;30.14;93216.25;4935840;28;20542;-73
2022/01/16 10:53:02;;;;;;;11.65;7.00;;;;;;;14.10;30.25;93211.72;4939960;28;20553;-73
2022/01/16 10:55:38;;;;;;;4.28;3.08;;;;;;;13.91;28.75;93230.44;4936709;28;20201;-72
2022/01/16 10:58:08;;;;;;;3.50;3.15;;;;;;;13.12;28.41;93217.00;4918253;28;20197;-72
2022/01/16 11:00:38;;;;;;;6.70;4.70;;;;;;;13.29;29.58;93199.31;4935121;28;20574;-73
2022/01/16 11:03:07;;;;;;;4.57;4.18;;;;;;;13.39;29.28;93176.09;4937736;28;20593;-73
2022/01/16 11:05:37;;;;;;;4.72;4.32;;;;;;;13.71;27.78;93211.00;4918309;28;20574;-73
2022/01/16 11:08:06;;;;;;;6.55;3.90;;;;;;;13.90;27.19;93214.38;4939593;28;20252;-72
2022/01/16 11:10:35;;;;;;;8.18;3.42;;;;;;;13.79;26.73;93215.75;4937948;28;20291;-73
2022/01/16 11:13:05;;;;;;;3.33;2.65;;;;;;;13.41;26.58;93209.84;4935132;28;20562;-73
2022/01/16 11:15:34;;;;;;;4.82;2.45;;;;;;;13.29;26.49;93206.13;4937350;28;20649;-73
2022/01/16 11:18:03;;;;;;;2.75;2.55;;;;;;;13.49;26.57;93197.63;4939580;28;20665;-73
2022/01/16 11:20:34;;;;;;;3.53;2.28;;;;;;;13.87;25.32;93209.41;4937086;28;20573;-72
2022/01/16 11:23:06;;;;;;;2.03;1.92;;;;;;;14.14;25.16;93198.88;4937106;28;20585;-73
2022/01/16 11:25:36;;;;;;;2.55;2.35;;;;;;;14.62;26.21;93194.03;4936683;28;20574;-72
2022/01/16 11:28:13;;;;;;;1.92;1.83;;;;;;;14.00;25.46;93196.97;4937049;28;20515;-70
2022/01/16 11:30:45;;;;;;;3.78;2.95;;;;;;;13.13;26.51;93182.28;4937156;28;20227;-71
2022/01/16 11:33:13;;;;;;;1.98;1.88;;;;;;;12.54;25.65;93184.78;4935823;28;20529;-71
2022/01/16 11:35:44;;;;;;;3.42;2.22;;;;;;;12.75;26.54;93163.63;4937426;28;20555;-70
2022/01/16 11:38:12;;;;;;;4.13;2.05;;;;;;;13.39;23.97;93197.22;4938126;28;20302;-73
2022/01/16 11:40:46;;;;;;;2.53;1.88;;;;;;;13.92;24.09;93194.78;4936800;28;20597;-73
2022/01/16 11:43:33;;;;;;;3.45;3.15;;;;;;;14.66;23.42;93198.06;4936543;28;20671;-70
2022/01/16 11:46:09;;;;;;;3.20;2.55;;;;;;;14.99;24.61;93174.38;4936933;28;20660;-71
2022/01/16 11:48:44;;;;;;;5.20;4.03;;;;;;;15.21;21.63;93201.19;4930429;28;20720;-71
2022/01/16 11:51:53;;;;;;;4.35;3.97;;;;;;;15.20;21.48;93206.41;4935890;28;20263;-70
2022/01/16 11:54:31;;;;;;;4.00;2.35;;;;;;;15.50;21.29;93206.53;4935924;28;20477;-70
2022/01/16 11:57:01;;;;;;;1.60;1.50;;;;;;;15.64;20.76;93215.13;4936949;28;20526;-71
2022/01/16 11:59:36;;;;;;;1.80;1.70;;;;;;;15.64;19.15;93232.97;4937515;28;20308;-71
2022/01/16 12:02:05;;;;;;;1.42;1.20;;;;;;;15.81;19.24;93224.44;4937230;28;20271;-71
2022/01/16 12:05:08;;;;;;;1.45;1.40;;;;;;;15.97;21.16;93197.22;4937357;28;20200;-71
2022/01/16 12:07:59;;;;;;;2.38;2.20;;;;;;;15.72;24.37;93154.41;4936972;28;20512;-71
2022/01/16 12:10:47;;;;;;;3.50;3.20;;;;;;;14.76;20.99;93183.97;4937583;28;20284;-71
2022/01/16 12:13:46;;;;;;;19.48;8.48;;;;;;;13.84;23.84;93161.31;4941060;28;20516;-71